Time;durP1;ratioP1;P1;durP2;ratioP2;P2;SDS_P1;SDS_P2;PMS_P1;PMS_P2;Temp;Humidity;BMP_temperature;BMP_pressure;BME280_temperature;BME280_humidity;BME280_pressure;Samples;Min_cycle;Max_cycle;Signal;HPM_P1;HPM_P2
2023/04/12 00:01:04;0.00;0.00;0.62;0.00;0.00;0.62;2.77;2.27;;;25.10;22.10;;;;;;2260482;61;20923;-62
2023/04/12 00:03:49;0.00;0.00;0.62;0.00;0.00;0.62;1.77;1.43;;;25.10;22.10;;;;;;2261057;61;20375;-61
2023/04/12 00:06:35;0.00;0.00;0.62;0.00;0.00;0.62;2.13;1.50;;;25.10;22.10;;;;;;2264228;61;20822;-61
2023/04/12 00:09:20;0.00;0.00;0.62;0.00;0.00;0.62;2.40;1.40;;;25.10;22.10;;;;;;2264151;61;20384;-63
2023/04/12 00:12:06;0.00;0.00;0.62;0.00;0.00;0.62;2.23;1.60;;;25.10;22.10;;;;;;2264058;61;20773;-62
2023/04/12 00:14:52;0.00;0.00;0.62;0.00;0.00;0.62;2.07;1.53;;;25.10;22.10;;;;;;2264079;61;20414;-63
2023/04/12 00:17:37;0.00;0.00;0.62;0.00;0.00;0.62;2.03;1.60;;;25.10;22.10;;;;;;2264590;61;20415;-63
2023/04/12 00:20:21;0.00;0.00;0.62;0.00;0.00;0.62;1.90;1.70;;;25.00;22.00;;;;;;2263704;61;20430;-63
2023/04/12 00:23:08;0.00;0.00;0.62;0.00;0.00;0.62;2.20;1.50;;;25.10;22.10;;;;;;2264331;61;20931;-63
2023/04/12 00:25:53;0.00;0.00;0.62;0.00;0.00;0.62;2.50;1.73;;;25.10;22.10;;;;;;2264085;61;20383;-64
2023/04/12 00:28:38;0.00;0.00;0.62;0.00;0.00;0.62;1.70;1.23;;;25.00;22.00;;;;;;2264249;61;20473;-62
2023/04/12 00:31:24;0.00;0.00;0.62;0.00;0.00;0.62;2.07;1.27;;;25.10;22.10;;;;;;2264471;61;20351;-64
2023/04/12 00:34:08;0.00;0.00;0.62;0.00;0.00;0.62;1.67;1.40;;;25.00;22.00;;;;;;2263899;61;20880;-63
2023/04/12 00:36:54;0.00;0.00;0.62;0.00;0.00;0.62;2.40;1.50;;;25.00;22.00;;;;;;2264013;61;20360;-62
2023/04/12 00:39:38;0.00;0.00;0.62;0.00;0.00;0.62;2.00;1.50;;;25.00;22.10;;;;;;2264147;61;20395;-64
2023/04/12 00:42:24;0.00;0.00;0.62;0.00;0.00;0.62;1.87;1.40;;;25.00;22.10;;;;;;2264081;61;20803;-64
2023/04/12 00:45:10;0.00;0.00;0.62;0.00;0.00;0.62;2.40;1.40;;;25.00;22.10;;;;;;2264228;61;21055;-63
2023/04/12 00:47:56;0.00;0.00;0.62;0.00;0.00;0.62;1.87;1.10;;;25.00;22.00;;;;;;2264108;61;20527;-63
2023/04/12 00:50:43;0.00;0.00;0.62;0.00;0.00;0.62;1.97;1.40;;;25.00;22.10;;;;;;2260674;61;20776;-63
2023/04/12 00:53:28;0.00;0.00;0.62;0.00;0.00;0.62;1.90;1.33;;;25.00;22.10;;;;;;2264293;61;20351;-62
2023/04/12 00:56:14;0.00;0.00;0.62;0.00;0.00;0.62;2.10;1.40;;;25.00;22.10;;;;;;2264011;61;20364;-62
2023/04/12 00:58:59;0.00;0.00;0.62;0.00;0.00;0.62;2.30;1.60;;;25.00;22.00;;;;;;2263898;61;20387;-62
2023/04/12 01:01:44;0.00;0.00;0.62;0.00;0.00;0.62;2.13;1.40;;;25.00;22.10;;;;;;2261374;61;20456;-63
2023/04/12 01:04:30;0.00;0.00;0.62;0.00;0.00;0.62;1.60;1.10;;;24.90;22.00;;;;;;2263749;61;20365;-62
2023/04/12 01:07:24;0.00;0.00;0.62;0.00;0.00;0.62;1.93;1.33;;;24.90;22.00;;;;;;2264002;61;20510;-65
2023/04/12 01:10:19;0.00;0.00;0.62;0.00;0.00;0.62;1.60;1.20;;;24.90;22.00;;;;;;2256645;61;21097;-63
2023/04/12 01:13:18;0.00;0.00;0.62;0.00;0.00;0.62;1.93;1.50;;;24.90;22.00;;;;;;2254066;61;20365;-63
2023/04/12 01:16:13;0.00;0.00;0.62;0.00;0.00;0.62;1.60;1.10;;;24.90;22.10;;;;;;2260163;61;20468;-59
2023/04/12 01:19:10;0.00;0.00;0.62;0.00;0.00;0.62;2.13;1.40;;;24.90;22.00;;;;;;2256226;61;20528;-63
2023/04/12 01:22:10;0.00;0.00;0.62;0.00;0.00;0.62;2.07;1.23;;;24.90;22.00;;;;;;2260204;61;20405;-66
2023/04/12 01:25:10;0.00;0.00;0.62;0.00;0.00;0.62;1.63;1.10;;;24.90;22.10;;;;;;2259942;61;20400;-62
2023/04/12 01:28:01;0.00;0.00;0.62;0.00;0.00;0.62;1.90;1.20;;;24.90;22.00;;;;;;2260171;61;20384;-65
2023/04/12 01:30:49;0.00;0.00;0.62;0.00;0.00;0.62;1.50;1.00;;;24.90;22.10;;;;;;2256688;61;21033;-62
2023/04/12 01:33:36;0.00;0.00;0.62;0.00;0.00;0.62;2.50;1.23;;;24.80;22.10;;;;;;2259175;61;20945;-60
2023/04/12 01:36:26;0.00;0.00;0.62;0.00;0.00;0.62;1.70;1.13;;;24.80;22.10;;;;;;2260123;61;20505;-66
2023/04/12 01:39:11;0.00;0.00;0.62;0.00;0.00;0.62;1.80;1.10;;;24.80;22.00;;;;;;2259651;61;20396;-62
2023/04/12 01:41:56;0.00;0.00;0.62;0.00;0.00;0.62;1.70;1.20;;;24.80;22.00;;;;;;2256879;61;20364;-62
2023/04/12 01:44:42;0.00;0.00;0.62;0.00;0.00;0.62;3.07;1.30;;;24.80;22.00;;;;;;2256862;61;20404;-63
2023/04/12 01:47:27;0.00;0.00;0.62;0.00;0.00;0.62;1.50;0.90;;;24.80;22.10;;;;;;2256352;61;20519;-63
2023/04/12 01:50:21;0.00;0.00;0.62;0.00;0.00;0.62;1.80;1.13;;;24.80;22.00;;;;;;2259724;61;20898;-61
2023/04/12 01:53:17;0.00;0.00;0.62;0.00;0.00;0.62;1.60;1.00;;;24.80;22.10;;;;;;2256842;61;20405;-61
2023/04/12 01:56:07;0.00;0.00;0.62;0.00;0.00;0.62;1.63;1.10;;;24.80;22.10;;;;;;2259755;61;20361;-63
2023/04/12 01:58:55;0.00;0.00;0.62;0.00;0.00;0.62;1.60;1.10;;;24.80;22.10;;;;;;2256510;61;20385;-60
2023/04/12 02:01:41;0.00;0.00;0.62;0.00;0.00;0.62;1.87;1.23;;;24.70;22.00;;;;;;2256564;61;20353;-63
2023/04/12 02:04:27;0.00;0.00;0.62;0.00;0.00;0.62;1.40;0.90;;;24.70;22.00;;;;;;2260011;61;20401;-63
2023/04/12 02:07:15;0.00;0.00;0.62;0.00;0.00;0.62;1.60;1.00;;;24.80;22.10;;;;;;2259778;61;20933;-62
2023/04/12 02:10:02;0.00;0.00;0.62;0.00;0.00;0.62;2.03;1.37;;;24.70;22.00;;;;;;2255962;61;20361;-59
2023/04/12 02:12:47;0.00;0.00;0.62;0.00;0.00;0.62;1.90;1.10;;;24.70;22.00;;;;;;2256667;61;20377;-64
2023/04/12 02:15:33;0.00;0.00;0.62;0.00;0.00;0.62;1.67;1.00;;;24.70;22.00;;;;;;2260092;61;20913;-63
2023/04/12 02:18:19;0.00;0.00;0.62;0.00;0.00;0.62;1.60;1.00;;;24.70;22.00;;;;;;2256432;61;20412;-67
2023/04/12 02:21:05;0.00;0.00;0.62;0.00;0.00;0.62;1.70;1.20;;;24.70;22.00;;;;;;2256453;61;20435;-65
2023/04/12 02:23:50;0.00;0.00;0.62;0.00;0.00;0.62;1.50;0.90;;;24.70;22.00;;;;;;2259989;61;20364;-63
2023/04/12 02:26:35;0.00;0.00;0.62;0.00;0.00;0.62;1.57;1.00;;;24.70;22.00;;;;;;2259886;61;20416;-62
2023/04/12 02:29:20;0.00;0.00;0.62;0.00;0.00;0.62;1.40;0.80;;;24.70;22.00;;;;;;2256256;61;20482;-63
2023/04/12 02:32:06;0.00;0.00;0.62;0.00;0.00;0.62;1.50;1.00;;;24.70;22.00;;;;;;2256815;61;20357;-63
2023/04/12 02:34:52;0.00;0.00;0.62;0.00;0.00;0.62;1.70;1.10;;;24.70;22.00;;;;;;2256475;61;20835;-62
2023/04/12 02:37:38;0.00;0.00;0.62;0.00;0.00;0.62;1.60;1.00;;;24.70;22.00;;;;;;2256843;61;20397;-64
2023/04/12 02:40:23;0.00;0.00;0.62;0.00;0.00;0.62;1.50;1.00;;;24.70;22.00;;;;;;2256003;61;20934;-62
2023/04/12 02:43:09;0.00;0.00;0.62;0.00;0.00;0.62;1.50;1.10;;;24.70;22.00;;;;;;2256547;61;20896;-62
2023/04/12 02:45:58;0.00;0.00;0.62;0.00;0.00;0.62;1.70;1.00;;;24.70;22.00;;;;;;2256613;61;20400;-62
2023/04/12 02:48:43;0.00;0.00;0.62;0.00;0.00;0.62;1.80;1.07;;;24.70;22.00;;;;;;2256746;61;20805;-62
2023/04/12 02:51:30;0.00;0.00;0.62;0.00;0.00;0.62;1.80;1.30;;;24.60;22.00;;;;;;2256566;61;20360;-62
2023/04/12 02:54:15;0.00;0.00;0.62;0.00;0.00;0.62;1.60;0.97;;;24.60;22.00;;;;;;2256417;61;20368;-61
2023/04/12 03:00:24;0.00;0.00;0.62;0.00;0.00;0.62;1.50;0.90;;;24.60;22.00;;;;;;2273202;61;20949;-63
2023/04/12 03:03:16;0.00;0.00;0.62;0.00;0.00;0.62;1.63;1.00;;;24.60;22.00;;;;;;2272026;61;20350;-62
2023/04/12 03:06:02;0.00;0.00;0.62;0.00;0.00;0.62;1.67;1.10;;;24.60;22.00;;;;;;2272205;61;20358;-62
2023/04/12 03:08:49;0.00;0.00;0.62;0.00;0.00;0.62;1.67;0.90;;;24.60;22.00;;;;;;2272390;61;20447;-62
2023/04/12 03:11:34;0.00;0.00;0.62;0.00;0.00;0.62;1.50;1.00;;;24.60;22.00;;;;;;2272257;61;20499;-63
2023/04/12 03:14:19;0.00;0.00;0.62;0.00;0.00;0.62;1.70;0.90;;;24.60;22.00;;;;;;2272351;61;20357;-62
2023/04/12 03:17:05;0.00;0.00;0.62;0.00;0.00;0.62;1.70;1.00;;;24.60;22.00;;;;;;2272086;61;20374;-61
2023/04/12 03:19:51;0.00;0.00;0.62;0.00;0.00;0.62;1.50;0.80;;;24.60;22.00;;;;;;2268925;61;20448;-61
2023/04/12 03:22:38;0.00;0.00;0.62;0.00;0.00;0.62;1.50;0.90;;;24.50;21.90;;;;;;2272635;61;20446;-61
2023/04/12 03:25:28;0.00;0.00;0.62;0.00;0.00;0.62;1.77;1.10;;;24.60;22.00;;;;;;2271918;61;20390;-66
2023/04/12 03:28:20;0.00;0.00;0.62;0.00;0.00;0.62;1.53;0.87;;;24.60;22.00;;;;;;2269506;61;20484;-64
2023/04/12 03:31:09;0.00;0.00;0.62;0.00;0.00;0.62;1.60;1.00;;;24.50;21.90;;;;;;2271620;61;20903;-62
2023/04/12 03:33:59;0.00;0.00;0.62;0.00;0.00;0.62;1.40;0.90;;;24.50;21.90;;;;;;2271852;61;20355;-60
2023/04/12 03:36:45;0.00;0.00;0.62;0.00;0.00;0.62;1.30;0.90;;;24.50;21.90;;;;;;2272555;61;20354;-61
2023/04/12 03:39:38;0.00;0.00;0.62;0.00;0.00;0.62;1.77;1.17;;;24.50;21.90;;;;;;2271445;61;20475;-62
2023/04/12 03:42:27;0.00;0.00;0.62;0.00;0.00;0.62;1.47;0.93;;;24.50;21.90;;;;;;2271993;61;20613;-60
2023/04/12 03:45:13;0.00;0.00;0.62;0.00;0.00;0.62;1.57;0.93;;;24.50;21.90;;;;;;2272482;61;20370;-61
2023/04/12 03:48:01;0.00;0.00;0.62;0.00;0.00;0.62;1.50;0.90;;;24.50;21.90;;;;;;2271970;61;20378;-62
2023/04/12 03:50:53;0.00;0.00;0.62;0.00;0.00;0.62;1.40;0.93;;;24.50;21.90;;;;;;2271648;61;20358;-65
2023/04/12 03:53:40;0.00;0.00;0.62;0.00;0.00;0.62;1.50;0.90;;;24.50;21.90;;;;;;2271564;61;20867;-64
2023/04/12 03:56:29;0.00;0.00;0.62;0.00;0.00;0.62;1.43;0.80;;;24.50;21.90;;;;;;2272039;61;20358;-64
2023/04/12 03:59:18;0.00;0.00;0.62;0.00;0.00;0.62;1.43;0.90;;;24.50;21.90;;;;;;2271720;61;20428;-65
2023/04/12 04:02:06;0.00;0.00;0.62;0.00;0.00;0.62;1.40;0.90;;;24.40;21.90;;;;;;2271757;61;20388;-64
2023/04/12 04:04:54;0.00;0.00;0.62;0.00;0.00;0.62;1.90;0.80;;;24.40;21.80;;;;;;2271865;61;20381;-64
2023/04/12 04:07:44;0.00;0.00;0.62;0.00;0.00;0.62;1.60;1.00;;;24.40;21.80;;;;;;2271774;61;20410;-61
2023/04/12 04:10:31;0.00;0.00;0.62;0.00;0.00;0.62;1.60;0.90;;;24.40;21.80;;;;;;2271783;60;20862;-61
2023/04/12 04:13:15;0.00;0.00;0.62;0.00;0.00;0.62;1.83;0.87;;;24.40;21.80;;;;;;2272018;61;20366;-62
2023/04/12 04:16:05;0.00;0.00;0.62;0.00;0.00;0.62;1.40;0.80;;;24.40;21.80;;;;;;2271811;61;20424;-62
2023/04/12 04:18:51;0.00;0.00;0.62;0.00;0.00;0.62;1.40;0.70;;;24.40;21.80;;;;;;2271808;61;20812;-66
2023/04/12 04:21:21;0.00;0.00;0.62;0.00;0.00;0.62;1.37;0.77;;;24.40;21.80;;;;;;2271761;61;20400;-64
2023/04/12 04:24:10;0.00;0.00;0.62;0.00;0.00;0.62;1.70;1.10;;;24.40;21.80;;;;;;2271760;61;20377;-61
2023/04/12 04:26:58;0.00;0.00;0.62;0.00;0.00;0.62;1.67;0.83;;;24.40;21.80;;;;;;2271843;61;20442;-61
2023/04/12 04:29:44;0.00;0.00;0.62;0.00;0.00;0.62;1.50;0.80;;;24.40;21.80;;;;;;2271452;61;20853;-64
2023/04/12 04:32:33;0.00;0.00;0.62;0.00;0.00;0.62;1.50;1.00;;;24.40;21.80;;;;;;2271883;61;20874;-63
2023/04/12 04:35:19;0.00;0.00;0.62;0.00;0.00;0.62;1.50;0.90;;;24.40;21.80;;;;;;2271823;61;20445;-61
2023/04/12 04:38:19;0.00;0.00;0.62;0.00;0.00;0.62;1.50;0.80;;;24.40;21.80;;;;;;2271505;61;20870;-59
2023/04/12 04:41:05;0.00;0.00;0.62;0.00;0.00;0.62;1.40;0.80;;;24.40;21.80;;;;;;2271768;61;20431;-62
2023/04/12 04:44:08;0.00;0.00;0.62;0.00;0.00;0.62;1.60;0.80;;;24.40;21.80;;;;;;2271945;61;20374;-62
2023/04/12 04:46:55;0.00;0.00;0.62;0.00;0.00;0.62;1.40;0.90;;;24.30;21.80;;;;;;2271460;61;20470;-62
2023/04/12 04:49:42;0.00;0.00;0.62;0.00;0.00;0.62;1.40;0.83;;;24.30;21.80;;;;;;2271488;61;20358;-66
2023/04/12 04:52:43;0.00;0.00;0.62;0.00;0.00;0.62;1.70;0.93;;;24.40;21.80;;;;;;2274331;60;20365;-61
2023/04/12 04:55:31;0.00;0.00;0.62;0.00;0.00;0.62;1.30;0.80;;;24.30;21.80;;;;;;2271796;61;20488;-61
2023/04/12 04:58:16;0.00;0.00;0.62;0.00;0.00;0.62;1.40;0.80;;;24.30;21.80;;;;;;2272144;61;20382;-63
2023/04/12 05:01:04;0.00;0.00;0.62;0.00;0.00;0.62;1.60;0.90;;;24.30;21.80;;;;;;2271230;61;20692;-62
2023/04/12 05:03:48;0.00;0.00;0.62;0.00;0.00;0.62;1.30;0.70;;;24.30;21.80;;;;;;2271889;61;20370;-61
2023/04/12 05:06:37;0.00;0.00;0.62;0.00;0.00;0.62;1.70;1.03;;;24.30;21.80;;;;;;2271994;61;20773;-61
2023/04/12 05:09:23;0.00;0.00;0.62;0.00;0.00;0.62;1.80;1.00;;;24.30;21.80;;;;;;2271501;61;20462;-63
2023/04/12 05:12:14;0.00;0.00;0.62;0.00;0.00;0.62;1.60;0.80;;;24.30;21.80;;;;;;2271675;61;20416;-62
2023/04/12 05:15:04;0.00;0.00;0.62;0.00;0.00;0.62;1.73;0.83;;;24.30;21.80;;;;;;2271561;61;20416;-64
2023/04/12 05:21:07;0.00;0.00;0.62;0.00;0.00;0.62;1.50;0.83;;;24.30;21.80;;;;;;2272610;61;20444;-60
2023/04/12 05:23:54;0.00;0.00;0.62;0.00;0.00;0.62;1.47;0.83;;;24.30;21.80;;;;;;2268697;61;20827;-64
2023/04/12 05:26:39;0.00;0.00;0.62;0.00;0.00;0.62;1.40;0.80;;;24.30;21.80;;;;;;2268869;61;20440;-60
2023/04/12 05:29:29;0.00;0.00;0.62;0.00;0.00;0.62;1.47;0.90;;;24.30;21.80;;;;;;2264410;61;20949;-63
2023/04/12 05:32:15;0.00;0.00;0.62;0.00;0.00;0.62;1.30;0.67;;;24.20;21.70;;;;;;2267848;61;20359;-59
2023/04/12 05:35:00;0.00;0.00;0.62;0.00;0.00;0.62;1.43;0.70;;;24.30;21.80;;;;;;2268218;61;20403;-63
2023/04/12 05:37:45;0.00;0.00;0.62;0.00;0.00;0.62;1.73;0.83;;;24.20;21.70;;;;;;2264671;61;20382;-61
2023/04/12 05:40:35;0.00;0.00;0.62;0.00;0.00;0.62;1.50;0.90;;;24.30;21.80;;;;;;2264251;61;20794;-62
2023/04/12 05:43:21;0.00;0.00;0.62;0.00;0.00;0.62;1.93;0.90;;;24.20;21.70;;;;;;2267661;61;20448;-60
2023/04/12 05:46:08;0.00;0.00;0.62;0.00;0.00;0.62;1.80;1.07;;;24.30;21.80;;;;;;2267790;61;20366;-63
2023/04/12 05:48:55;0.00;0.00;0.62;0.00;0.00;0.62;1.40;0.73;;;24.20;21.70;;;;;;2264526;61;20375;-62
2023/04/12 05:51:40;0.00;0.00;0.62;0.00;0.00;0.62;1.77;0.90;;;24.30;21.80;;;;;;2264655;61;20363;-62
2023/04/12 05:54:25;0.00;0.00;0.62;0.00;0.00;0.62;1.40;0.90;;;24.20;21.70;;;;;;2264618;61;20433;-62
2023/04/12 05:57:14;0.00;0.00;0.62;0.00;0.00;0.62;2.93;0.87;;;24.20;21.70;;;;;;2264996;61;20411;-65
2023/04/12 06:00:00;0.00;0.00;0.62;0.00;0.00;0.62;1.40;0.80;;;24.20;21.70;;;;;;2264343;61;20404;-63
2023/04/12 06:02:47;0.00;0.00;0.62;0.00;0.00;0.62;1.23;0.70;;;24.20;21.70;;;;;;2264827;61;20792;-64
2023/04/12 06:05:33;0.00;0.00;0.62;0.00;0.00;0.62;1.20;0.70;;;24.20;21.70;;;;;;2264943;61;20389;-63
2023/04/12 06:08:18;0.00;0.00;0.62;0.00;0.00;0.62;1.30;0.70;;;24.20;21.70;;;;;;2267676;61;20441;-62
2023/04/12 06:11:03;0.00;0.00;0.62;0.00;0.00;0.62;1.70;0.80;;;24.20;21.70;;;;;;2267753;61;20410;-61
2023/04/12 06:13:52;0.00;0.00;0.62;0.00;0.00;0.62;1.53;0.80;;;24.20;21.70;;;;;;2267634;61;20826;-61
2023/04/12 06:16:36;0.00;0.00;0.62;0.00;0.00;0.62;1.60;0.80;;;24.20;21.70;;;;;;2267942;61;20415;-64
2023/04/12 06:19:21;0.00;0.00;0.62;0.00;0.00;0.62;1.20;0.70;;;24.20;21.70;;;;;;2270008;61;20412;-62
2023/04/12 06:22:08;0.00;0.00;0.62;0.00;0.00;0.62;1.40;0.70;;;24.20;21.70;;;;;;2267166;61;20367;-63
2023/04/12 06:24:54;0.00;0.00;0.62;0.00;0.00;0.62;1.40;0.73;;;24.20;21.70;;;;;;2268744;61;20370;-62
2023/04/12 06:27:41;0.00;0.00;0.62;0.00;0.00;0.62;1.80;0.80;;;24.20;21.70;;;;;;2268900;61;20788;-62
2023/04/12 06:30:27;0.00;0.00;0.62;0.00;0.00;0.62;1.67;1.03;;;24.20;21.70;;;;;;2267878;61;20646;-65
2023/04/12 06:33:12;0.00;0.00;0.62;0.00;0.00;0.62;1.60;0.70;;;24.20;21.70;;;;;;2268606;61;20496;-62
2023/04/12 06:35:59;0.00;0.00;0.62;0.00;0.00;0.62;1.70;0.90;;;24.20;21.70;;;;;;2271872;61;20442;-63
2023/04/12 06:38:44;0.00;0.00;0.62;0.00;0.00;0.62;1.50;0.90;;;24.20;21.70;;;;;;2272754;61;20917;-63
2023/04/12 06:41:29;0.00;0.00;0.62;0.00;0.00;0.62;1.40;0.90;;;24.20;21.70;;;;;;2272934;61;20423;-67
2023/04/12 06:44:18;0.00;0.00;0.62;0.00;0.00;0.62;1.40;0.80;;;24.20;21.70;;;;;;2270022;61;20818;-62
2023/04/12 06:47:04;0.00;0.00;0.62;0.00;0.00;0.62;1.43;0.90;;;24.20;21.70;;;;;;2268213;61;20408;-64
2023/04/12 06:49:51;0.00;0.00;0.62;0.00;0.00;0.62;1.50;1.00;;;24.20;21.70;;;;;;2268136;61;20382;-64
2023/04/12 06:52:36;0.00;0.00;0.62;0.00;0.00;0.62;1.50;1.00;;;24.20;21.70;;;;;;2268294;61;20573;-63
2023/04/12 06:55:21;0.00;0.00;0.62;0.00;0.00;0.62;2.33;1.30;;;24.20;21.70;;;;;;2268642;61;20359;-65
2023/04/12 06:58:06;0.00;0.00;0.62;0.00;0.00;0.62;1.90;0.80;;;24.20;21.70;;;;;;2268448;61;20382;-60
2023/04/12 07:00:50;0.00;0.00;0.62;0.00;0.00;0.62;1.93;1.10;;;24.20;21.70;;;;;;2268265;61;20398;-61
2023/04/12 07:03:36;0.00;0.00;0.62;0.00;0.00;0.62;1.97;1.13;;;24.20;21.70;;;;;;2268720;61;20412;-61
2023/04/12 07:06:21;0.00;0.00;0.62;0.00;0.00;0.62;2.40;1.47;;;24.20;21.70;;;;;;2268370;61;20425;-62
2023/04/12 07:09:06;0.00;0.00;0.62;0.00;0.00;0.62;2.03;1.40;;;24.20;21.70;;;;;;2268118;61;20483;-59
2023/04/12 07:11:50;0.00;0.00;0.62;0.00;0.00;0.62;2.07;1.43;;;24.20;21.70;;;;;;2269008;61;20359;-62
2023/04/12 07:14:35;0.00;0.00;0.62;0.00;0.00;0.62;3.33;1.90;;;24.20;21.70;;;;;;2268228;61;20764;-64
2023/04/12 07:17:20;0.00;0.00;0.62;0.00;0.00;0.62;1.80;1.40;;;24.20;21.70;;;;;;2268655;61;20444;-61
2023/04/12 07:20:07;0.00;0.00;0.62;0.00;0.00;0.62;2.40;1.50;;;24.20;21.70;;;;;;2268066;61;21114;-62
2023/04/12 07:22:52;0.00;0.00;0.62;0.00;0.00;0.62;1.90;1.70;;;24.20;21.70;;;;;;2268704;61;20367;-62
2023/04/12 07:25:37;0.00;0.00;0.62;0.00;0.00;0.62;2.07;1.50;;;24.20;21.70;;;;;;2268673;61;20859;-61
2023/04/12 07:28:22;0.00;0.00;0.62;0.00;0.00;0.62;2.17;1.63;;;24.20;21.70;;;;;;2268302;61;20397;-61
2023/04/12 07:31:07;0.00;0.00;0.62;0.00;0.00;0.62;2.63;2.10;;;24.20;22.20;;;;;;2268090;61;20340;-62
2023/04/12 07:33:52;0.00;0.00;0.62;0.00;0.00;0.62;2.20;1.50;;;24.20;21.70;;;;;;2268727;61;20367;-62
2023/04/12 07:36:38;0.00;0.00;0.62;0.00;0.00;0.62;2.60;2.33;;;24.20;21.70;;;;;;2268297;61;20447;-62
2023/04/12 07:39:23;0.00;0.00;0.62;0.00;0.00;0.62;3.27;2.40;;;24.20;21.70;;;;;;2268013;61;20363;-62
2023/04/12 07:42:08;0.00;0.00;0.62;0.00;0.00;0.62;2.90;2.17;;;24.20;21.70;;;;;;2268386;61;20406;-61
2023/04/12 07:44:53;0.00;0.00;0.62;0.00;0.00;0.62;3.47;2.80;;;24.20;21.70;;;;;;2268172;61;20565;-61
2023/04/12 07:47:38;0.00;0.00;0.62;0.00;0.00;0.62;3.47;2.50;;;24.20;21.70;;;;;;2268350;61;20419;-61
2023/04/12 07:50:22;0.00;0.00;0.62;0.00;0.00;0.62;3.53;2.53;;;24.20;21.70;;;;;;2268039;61;20406;-59
2023/04/12 07:53:23;0.00;0.00;0.62;0.00;0.00;0.62;4.03;2.70;;;24.20;21.70;;;;;;2268059;61;20407;-63
2023/04/12 07:56:08;0.00;0.00;0.62;0.00;0.00;0.62;3.90;3.13;;;24.20;21.70;;;;;;2268655;61;20388;-63
2023/04/12 07:58:53;0.00;0.00;0.62;0.00;0.00;0.62;4.10;3.17;;;24.20;21.70;;;;;;2267856;61;20562;-62
2023/04/12 08:01:38;0.00;0.00;0.62;0.00;0.00;0.62;4.40;3.30;;;24.20;21.70;;;;;;2268231;61;20383;-64
2023/04/12 08:04:23;0.00;0.00;0.62;0.00;0.00;0.62;3.80;3.40;;;24.20;21.70;;;;;;2268130;61;20627;-66
2023/04/12 08:07:08;0.00;0.00;0.62;0.00;0.00;0.62;3.47;3.03;;;24.20;22.20;;;;;;2268349;61;20767;-61
2023/04/12 08:09:54;0.00;0.00;0.62;0.00;0.00;0.62;5.20;4.07;;;24.20;21.70;;;;;;2268069;61;20363;-61
2023/04/12 08:12:40;0.00;0.00;0.62;0.00;0.00;0.62;4.80;3.80;;;24.20;21.70;;;;;;2268276;61;20367;-61
2023/04/12 08:15:25;0.00;0.00;0.62;0.00;0.00;0.62;4.50;3.50;;;24.20;21.70;;;;;;2268106;61;20363;-62
2023/04/12 08:18:10;0.00;0.00;0.62;0.00;0.00;0.62;5.40;4.10;;;24.20;21.70;;;;;;2268568;61;20398;-64
2023/04/12 08:20:54;0.00;0.00;0.62;0.00;0.00;0.62;5.80;4.50;;;24.20;21.70;;;;;;2267271;61;20379;-65
2023/04/12 08:23:39;0.00;0.00;0.62;0.00;0.00;0.62;5.97;4.50;;;24.20;21.70;;;;;;2268354;61;20379;-61
2023/04/12 08:26:26;0.00;0.00;0.62;0.00;0.00;0.62;5.07;4.20;;;24.20;21.70;;;;;;2269073;61;21044;-60
2023/04/12 08:29:11;0.00;0.00;0.62;0.00;0.00;0.62;6.37;4.97;;;24.20;21.70;;;;;;2271990;61;20389;-62
2023/04/12 08:31:59;0.00;0.00;0.62;0.00;0.00;0.62;5.40;4.23;;;24.20;21.70;;;;;;2272353;61;20369;-62
2023/04/12 08:34:44;0.00;0.00;0.62;0.00;0.00;0.62;5.63;5.03;;;24.20;21.70;;;;;;2269011;61;20489;-62
2023/04/12 08:37:28;0.00;0.00;0.62;0.00;0.00;0.62;7.23;5.10;;;24.20;21.70;;;;;;2272267;61;20456;-61
2023/04/12 08:40:14;0.00;0.00;0.62;0.00;0.00;0.62;5.57;4.33;;;24.20;21.70;;;;;;2272271;61;20929;-63
2023/04/12 08:43:04;0.00;0.00;0.62;0.00;0.00;0.62;7.00;5.00;;;24.20;21.70;;;;;;2272113;61;20362;-64
2023/04/12 08:45:49;0.00;0.00;0.62;0.00;0.00;0.62;6.17;5.57;;;24.20;21.70;;;;;;2269289;61;20408;-62
2023/04/12 08:48:35;0.00;0.00;0.62;0.00;0.00;0.62;5.27;4.47;;;24.20;21.70;;;;;;2272256;61;20429;-60
2023/04/12 08:51:21;0.00;0.00;0.62;0.00;0.00;0.62;6.63;5.50;;;24.20;21.70;;;;;;2269195;61;21041;-61
2023/04/12 08:54:06;0.00;0.00;0.62;0.00;0.00;0.62;5.93;5.30;;;24.20;22.20;;;;;;2272233;61;20355;-62
2023/04/12 08:56:52;0.00;0.00;0.62;0.00;0.00;0.62;6.10;5.50;;;24.20;21.70;;;;;;2272331;60;20378;-62
2023/04/12 08:59:42;0.00;0.00;0.62;0.00;0.00;0.62;7.57;6.73;;;24.20;21.70;;;;;;2271969;61;20408;-62
2023/04/12 09:02:27;0.00;0.00;0.62;0.00;0.00;0.62;7.23;6.20;;;24.20;21.70;;;;;;2272439;61;20407;-62
2023/04/12 09:05:13;0.00;0.00;0.62;0.00;0.00;0.62;6.77;6.07;;;24.20;21.70;;;;;;2271911;61;20392;-62
2023/04/12 09:07:58;0.00;0.00;0.62;0.00;0.00;0.62;7.80;6.80;;;24.20;21.70;;;;;;2272203;61;20501;-63
2023/04/12 09:10:43;0.00;0.00;0.62;0.00;0.00;0.62;7.40;6.53;;;24.10;21.60;;;;;;2271785;61;20392;-61
2023/04/12 09:13:33;0.00;0.00;0.62;0.00;0.00;0.62;8.00;6.93;;;24.20;21.70;;;;;;2272245;61;20358;-67
2023/04/12 09:16:36;0.00;0.00;0.62;0.00;0.00;0.62;7.60;6.80;;;24.20;22.30;;;;;;2269204;61;20885;-63
2023/04/12 09:19:31;0.00;0.00;0.62;0.00;0.00;0.62;7.57;6.27;;;24.20;21.70;;;;;;2271485;61;20362;-64
2023/04/12 09:22:16;0.00;0.00;0.62;0.00;0.00;0.62;9.00;6.80;;;24.20;21.70;;;;;;2272331;61;20398;-64
2023/04/12 09:25:02;0.00;0.00;0.62;0.00;0.00;0.62;7.70;6.87;;;24.20;21.70;;;;;;2272462;61;20397;-64
2023/04/12 09:27:47;0.00;0.00;0.62;0.00;0.00;0.62;7.53;6.73;;;24.10;21.60;;;;;;2271921;61;20470;-64
2023/04/12 09:30:41;0.00;0.00;0.62;0.00;0.00;0.62;8.40;6.87;;;24.20;21.70;;;;;;2271569;61;20379;-65
2023/04/12 09:33:36;0.00;0.00;0.62;0.00;0.00;0.62;9.03;7.53;;;24.10;21.60;;;;;;2271764;61;20781;-64
2023/04/12 09:36:21;0.00;0.00;0.62;0.00;0.00;0.62;8.47;7.00;;;24.10;21.60;;;;;;2272106;61;20362;-65
2023/04/12 09:39:07;0.00;0.00;0.62;0.00;0.00;0.62;9.13;8.23;;;24.10;21.60;;;;;;2271792;61;20522;-66
2023/04/12 09:42:03;0.00;0.00;0.62;0.00;0.00;0.62;8.37;7.10;;;24.10;21.60;;;;;;2271696;61;20386;-65
2023/04/12 09:44:48;0.00;0.00;0.62;0.00;0.00;0.62;7.80;6.23;;;24.10;21.60;;;;;;2271904;61;20362;-63
2023/04/12 09:47:37;0.00;0.00;0.62;0.00;0.00;0.62;7.67;6.87;;;24.10;21.60;;;;;;2272221;61;20386;-65
2023/04/12 09:50:27;0.00;0.00;0.62;0.00;0.00;0.62;8.03;7.23;;;24.10;21.60;;;;;;2271673;61;20365;-65
2023/04/12 09:53:17;0.00;0.00;0.62;0.00;0.00;0.62;8.10;7.30;;;24.10;21.60;;;;;;2271976;61;20363;-65
2023/04/12 09:56:03;0.00;0.00;0.62;0.00;0.00;0.62;8.07;7.23;;;24.10;21.60;;;;;;2272065;61;20359;-60
2023/04/12 09:58:52;0.00;0.00;0.62;0.00;0.00;0.62;6.90;6.20;;;24.10;21.60;;;;;;2272024;61;20515;-61
2023/04/12 10:01:39;0.00;0.00;0.62;0.00;0.00;0.62;10.00;8.23;;;24.10;21.60;;;;;;2272320;61;20976;-62
2023/04/12 10:04:25;0.00;0.00;0.62;0.00;0.00;0.62;8.47;7.57;;;24.10;21.60;;;;;;2268505;61;20675;-65
2023/04/12 10:07:11;0.00;0.00;0.62;0.00;0.00;0.62;7.63;6.93;;;24.10;21.60;;;;;;2271825;61;20596;-65
2023/04/12 10:09:58;0.00;0.00;0.62;0.00;0.00;0.62;7.90;7.13;;;24.10;21.60;;;;;;2271798;61;20362;-63
2023/04/12 10:12:45;0.00;0.00;0.62;0.00;0.00;0.62;9.70;7.90;;;24.10;21.60;;;;;;2271838;61;20834;-65
2023/04/12 10:15:31;0.00;0.00;0.62;0.00;0.00;0.62;7.30;6.37;;;24.10;21.60;;;;;;2271877;61;20408;-64
2023/04/12 10:18:21;0.00;0.00;0.62;0.00;0.00;0.62;10.00;6.43;;;24.10;21.60;;;;;;2268732;61;20444;-64
2023/04/12 10:21:10;0.00;0.00;0.62;0.00;0.00;0.62;7.57;6.40;;;24.10;21.60;;;;;;2271660;61;20378;-65
2023/04/12 10:23:57;0.00;0.00;0.62;0.00;0.00;0.62;7.23;6.13;;;24.10;21.60;;;;;;2272162;61;20366;-64
2023/04/12 10:26:43;0.00;0.00;0.62;0.00;0.00;0.62;7.00;5.70;;;24.10;21.60;;;;;;2271610;61;20369;-63
2023/04/12 10:29:32;0.00;0.00;0.62;0.00;0.00;0.62;6.47;5.70;;;24.10;21.60;;;;;;2271729;61;20365;-62
2023/04/12 10:32:22;0.00;0.00;0.62;0.00;0.00;0.62;6.10;5.37;;;24.10;21.60;;;;;;2272049;61;20358;-62
2023/04/12 10:35:08;0.00;0.00;0.62;0.00;0.00;0.62;6.50;5.50;;;24.10;21.70;;;;;;2271966;61;20954;-62
2023/04/12 10:38:00;0.00;0.00;0.62;0.00;0.00;0.62;6.40;5.80;;;24.10;21.60;;;;;;2272069;61;20386;-62
2023/04/12 10:41:13;0.00;0.00;0.62;0.00;0.00;0.62;7.00;6.30;;;24.10;21.60;;;;;;2271184;61;20845;-62
2023/04/12 10:44:25;0.00;0.00;0.62;0.00;0.00;0.62;6.73;5.93;;;24.10;21.60;;;;;;2272137;61;20464;-63
2023/04/12 10:47:13;0.00;0.00;0.62;0.00;0.00;0.62;6.40;5.67;;;24.10;21.60;;;;;;2268508;61;20358;-63
2023/04/12 10:50:25;0.00;0.00;0.62;0.00;0.00;0.62;5.87;5.27;;;24.10;21.60;;;;;;2272049;61;20362;-61
2023/04/12 10:53:23;0.00;0.00;0.62;0.00;0.00;0.62;6.53;5.67;;;24.10;21.60;;;;;;2254525;61;21041;-62
2023/04/12 10:56:42;0.00;0.00;0.62;0.00;0.00;0.62;5.67;4.90;;;24.10;21.60;;;;;;2254421;61;20408;-63
2023/04/12 10:59:51;0.00;0.00;0.62;0.00;0.00;0.62;6.40;5.17;;;24.10;21.60;;;;;;2251467;61;20458;-74
2023/04/12 11:03:02;0.00;0.00;0.62;0.00;0.00;0.62;5.30;4.70;;;24.10;21.60;;;;;;2254496;61;20668;-65
2023/04/12 11:05:59;0.00;0.00;0.62;0.00;0.00;0.62;6.10;5.50;;;24.10;21.60;;;;;;2254555;61;20370;-64
2023/04/12 11:09:15;0.00;0.00;0.62;0.00;0.00;0.62;5.63;5.03;;;24.10;21.60;;;;;;2515370;39;20470;31